sensor_id;sensor_type;location;lat;lon;timestamp;P1;durP1;ratioP1;P2;durP2;ratioP2
8574;SDS011;4325;42.520;27.448;2023-03-01T00:01:53;8.40;;;6.00;;
8574;SDS011;4325;42.520;27.448;2023-03-01T00:04:21;9.50;;;6.97;;
8574;SDS011;4325;42.520;27.448;2023-03-01T00:06:48;11.93;;;7.43;;
8574;SDS011;4325;42.520;27.448;2023-03-01T00:09:15;10.07;;;7.07;;
8574;SDS011;4325;42.520;27.448;2023-03-01T00:11:42;11.00;;;8.37;;
8574;SDS011;4325;42.520;27.448;2023-03-01T00:14:10;11.40;;;8.27;;
8574;SDS011;4325;42.520;27.448;2023-03-01T00:16:39;11.83;;;7.27;;
8574;SDS011;4325;42.520;27.448;2023-03-01T00:19:08;10.23;;;7.50;;
8574;SDS011;4325;42.520;27.448;2023-03-01T00:21:39;8.13;;;6.23;;
8574;SDS011;4325;42.520;27.448;2023-03-01T00:24:06;7.50;;;5.97;;
8574;SDS011;4325;42.520;27.448;2023-03-01T00:26:33;7.97;;;5.97;;
8574;SDS011;4325;42.520;27.448;2023-03-01T00:29:00;7.17;;;6.03;;
8574;SDS011;4325;42.520;27.448;2023-03-01T00:31:27;10.23;;;6.93;;
8574;SDS011;4325;42.520;27.448;2023-03-01T00:33:56;10.87;;;5.90;;
8574;SDS011;4325;42.520;27.448;2023-03-01T00:36:25;8.00;;;6.33;;
8574;SDS011;4325;42.520;27.448;2023-03-01T00:38:54;8.57;;;6.07;;
8574;SDS011;4325;42.520;27.448;2023-03-01T00:41:22;7.77;;;5.50;;
8574;SDS011;4325;42.520;27.448;2023-03-01T00:43:51;6.23;;;5.63;;
8574;SDS011;4325;42.520;27.448;2023-03-01T00:46:19;6.60;;;5.90;;
8574;SDS011;4325;42.520;27.448;2023-03-01T00:48:47;7.97;;;6.20;;
8574;SDS011;4325;42.520;27.448;2023-03-01T00:51:15;12.63;;;6.87;;
8574;SDS011;4325;42.520;27.448;2023-03-01T00:53:43;7.73;;;6.20;;
8574;SDS011;4325;42.520;27.448;2023-03-01T00:56:13;9.07;;;6.50;;
8574;SDS011;4325;42.520;27.448;2023-03-01T00:58:41;7.07;;;6.37;;
8574;SDS011;4325;42.520;27.448;2023-03-01T01:01:08;8.57;;;7.20;;
8574;SDS011;4325;42.520;27.448;2023-03-01T01:03:42;8.30;;;6.70;;
8574;SDS011;4325;42.520;27.448;2023-03-01T01:06:13;7.60;;;6.40;;
8574;SDS011;4325;42.520;27.448;2023-03-01T01:08:41;10.03;;;6.33;;
8574;SDS011;4325;42.520;27.448;2023-03-01T01:11:08;11.17;;;6.97;;
8574;SDS011;4325;42.520;27.448;2023-03-01T01:13:37;8.13;;;6.33;;
8574;SDS011;4325;42.520;27.448;2023-03-01T01:16:04;10.13;;;7.17;;
8574;SDS011;4325;42.520;27.448;2023-03-01T01:18:32;8.83;;;6.90;;
8574;SDS011;4325;42.520;27.448;2023-03-01T01:21:02;10.80;;;8.33;;
8574;SDS011;4325;42.520;27.448;2023-03-01T01:23:30;11.23;;;9.80;;
8574;SDS011;4325;42.520;27.448;2023-03-01T01:25:57;12.83;;;10.70;;
8574;SDS011;4325;42.520;27.448;2023-03-01T01:28:29;14.07;;;11.57;;
8574;SDS011;4325;42.520;27.448;2023-03-01T01:30:57;16.23;;;11.33;;
8574;SDS011;4325;42.520;27.448;2023-03-01T01:33:24;13.27;;;11.00;;
8574;SDS011;4325;42.520;27.448;2023-03-01T01:35:51;12.73;;;11.17;;
8574;SDS011;4325;42.520;27.448;2023-03-01T01:38:18;13.13;;;10.23;;
8574;SDS011;4325;42.520;27.448;2023-03-01T01:40:46;13.47;;;10.70;;
8574;SDS011;4325;42.520;27.448;2023-03-01T01:43:16;14.73;;;11.40;;
8574;SDS011;4325;42.520;27.448;2023-03-01T01:45:46;15.53;;;10.27;;
8574;SDS011;4325;42.520;27.448;2023-03-01T01:48:16;12.90;;;8.90;;
8574;SDS011;4325;42.520;27.448;2023-03-01T01:50:48;9.83;;;8.43;;
8574;SDS011;4325;42.520;27.448;2023-03-01T01:53:21;11.53;;;8.87;;
8574;SDS011;4325;42.520;27.448;2023-03-01T01:55:51;8.67;;;7.33;;
8574;SDS011;4325;42.520;27.448;2023-03-01T01:58:22;10.37;;;7.63;;
8574;SDS011;4325;42.520;27.448;2023-03-01T02:00:52;8.33;;;6.70;;
8574;SDS011;4325;42.520;27.448;2023-03-01T02:03:22;12.63;;;7.90;;
8574;SDS011;4325;42.520;27.448;2023-03-01T02:05:55;12.20;;;6.90;;
8574;SDS011;4325;42.520;27.448;2023-03-01T02:08:27;7.80;;;7.00;;
8574;SDS011;4325;42.520;27.448;2023-03-01T02:10:57;7.30;;;6.60;;
8574;SDS011;4325;42.520;27.448;2023-03-01T02:13:24;9.10;;;6.67;;
8574;SDS011;4325;42.520;27.448;2023-03-01T02:15:51;7.83;;;6.00;;
8574;SDS011;4325;42.520;27.448;2023-03-01T02:18:19;7.27;;;6.03;;
8574;SDS011;4325;42.520;27.448;2023-03-01T02:20:52;8.93;;;6.00;;
8574;SDS011;4325;42.520;27.448;2023-03-01T02:23:28;10.23;;;5.73;;
8574;SDS011;4325;42.520;27.448;2023-03-01T02:25:57;8.30;;;5.33;;
8574;SDS011;4325;42.520;27.448;2023-03-01T02:28:32;6.73;;;5.60;;
8574;SDS011;4325;42.520;27.448;2023-03-01T02:31:01;7.53;;;5.53;;
8574;SDS011;4325;42.520;27.448;2023-03-01T02:33:48;7.53;;;5.27;;
8574;SDS011;4325;42.520;27.448;2023-03-01T02:36:15;8.30;;;4.83;;
8574;SDS011;4325;42.520;27.448;2023-03-01T02:38:46;5.80;;;4.73;;
8574;SDS011;4325;42.520;27.448;2023-03-01T02:41:14;5.80;;;4.33;;
8574;SDS011;4325;42.520;27.448;2023-03-01T02:43:45;9.97;;;4.63;;
8574;SDS011;4325;42.520;27.448;2023-03-01T02:46:14;9.80;;;5.07;;
8574;SDS011;4325;42.520;27.448;2023-03-01T02:48:44;6.33;;;4.27;;
8574;SDS011;4325;42.520;27.448;2023-03-01T02:54:07;5.77;;;4.23;;
8574;SDS011;4325;42.520;27.448;2023-03-01T02:56:39;5.87;;;3.43;;
8574;SDS011;4325;42.520;27.448;2023-03-01T02:59:08;8.63;;;4.97;;
8574;SDS011;4325;42.520;27.448;2023-03-01T03:01:36;5.80;;;4.50;;
8574;SDS011;4325;42.520;27.448;2023-03-01T03:04:04;5.40;;;4.07;;
8574;SDS011;4325;42.520;27.448;2023-03-01T03:06:31;7.53;;;4.40;;
8574;SDS011;4325;42.520;27.448;2023-03-01T03:08:58;8.67;;;4.60;;
8574;SDS011;4325;42.520;27.448;2023-03-01T03:11:26;11.50;;;4.93;;
8574;SDS011;4325;42.520;27.448;2023-03-01T03:13:53;8.60;;;5.50;;
8574;SDS011;4325;42.520;27.448;2023-03-01T03:16:21;6.40;;;4.67;;
8574;SDS011;4325;42.520;27.448;2023-03-01T03:18:49;8.07;;;4.90;;
8574;SDS011;4325;42.520;27.448;2023-03-01T03:21:16;6.43;;;4.70;;
8574;SDS011;4325;42.520;27.448;2023-03-01T03:23:43;7.73;;;5.30;;
8574;SDS011;4325;42.520;27.448;2023-03-01T03:26:10;6.50;;;5.00;;
8574;SDS011;4325;42.520;27.448;2023-03-01T03:28:40;7.70;;;4.50;;
8574;SDS011;4325;42.520;27.448;2023-03-01T03:31:07;6.10;;;4.60;;
8574;SDS011;4325;42.520;27.448;2023-03-01T03:33:35;6.57;;;4.57;;
8574;SDS011;4325;42.520;27.448;2023-03-01T03:36:03;6.70;;;4.57;;
8574;SDS011;4325;42.520;27.448;2023-03-01T03:38:30;8.03;;;4.40;;
8574;SDS011;4325;42.520;27.448;2023-03-01T03:41:01;7.73;;;5.00;;
8574;SDS011;4325;42.520;27.448;2023-03-01T03:43:30;6.80;;;4.73;;
8574;SDS011;4325;42.520;27.448;2023-03-01T03:46:16;9.03;;;4.93;;
8574;SDS011;4325;42.520;27.448;2023-03-01T03:48:45;4.73;;;4.03;;
8574;SDS011;4325;42.520;27.448;2023-03-01T03:51:12;7.37;;;4.43;;
8574;SDS011;4325;42.520;27.448;2023-03-01T03:53:40;8.47;;;4.77;;
8574;SDS011;4325;42.520;27.448;2023-03-01T03:56:08;5.67;;;4.50;;
8574;SDS011;4325;42.520;27.448;2023-03-01T03:58:53;4.80;;;4.30;;
8574;SDS011;4325;42.520;27.448;2023-03-01T04:01:20;9.97;;;4.67;;
8574;SDS011;4325;42.520;27.448;2023-03-01T04:04:05;7.57;;;4.50;;
8574;SDS011;4325;42.520;27.448;2023-03-01T04:06:33;7.37;;;5.17;;
8574;SDS011;4325;42.520;27.448;2023-03-01T04:08:59;7.73;;;4.90;;
8574;SDS011;4325;42.520;27.448;2023-03-01T04:11:28;8.67;;;5.30;;
8574;SDS011;4325;42.520;27.448;2023-03-01T04:13:55;8.37;;;4.90;;
8574;SDS011;4325;42.520;27.448;2023-03-01T04:16:24;9.60;;;5.20;;
8574;SDS011;4325;42.520;27.448;2023-03-01T04:18:51;6.00;;;5.13;;
8574;SDS011;4325;42.520;27.448;2023-03-01T04:21:20;8.43;;;5.77;;
8574;SDS011;4325;42.520;27.448;2023-03-01T04:23:47;8.07;;;6.00;;
8574;SDS011;4325;42.520;27.448;2023-03-01T04:26:17;14.23;;;6.50;;
8574;SDS011;4325;42.520;27.448;2023-03-01T04:28:44;8.63;;;7.10;;
8574;SDS011;4325;42.520;27.448;2023-03-01T04:31:14;10.60;;;7.00;;
8574;SDS011;4325;42.520;27.448;2023-03-01T04:33:44;10.10;;;7.13;;
8574;SDS011;4325;42.520;27.448;2023-03-01T04:36:13;10.57;;;7.33;;
8574;SDS011;4325;42.520;27.448;2023-03-01T04:38:43;11.93;;;8.40;;
8574;SDS011;4325;42.520;27.448;2023-03-01T04:41:14;15.10;;;7.87;;
8574;SDS011;4325;42.520;27.448;2023-03-01T04:43:42;14.37;;;8.07;;
8574;SDS011;4325;42.520;27.448;2023-03-01T04:46:10;11.70;;;8.00;;
8574;SDS011;4325;42.520;27.448;2023-03-01T04:48:39;17.90;;;8.10;;
8574;SDS011;4325;42.520;27.448;2023-03-01T04:51:07;13.13;;;8.97;;
8574;SDS011;4325;42.520;27.448;2023-03-01T04:53:34;12.47;;;8.60;;
8574;SDS011;4325;42.520;27.448;2023-03-01T04:56:04;19.87;;;9.10;;
8574;SDS011;4325;42.520;27.448;2023-03-01T04:58:31;13.27;;;8.63;;
8574;SDS011;4325;42.520;27.448;2023-03-01T05:00:58;13.43;;;7.60;;
8574;SDS011;4325;42.520;27.448;2023-03-01T05:03:25;10.77;;;8.63;;
8574;SDS011;4325;42.520;27.448;2023-03-01T05:05:53;14.03;;;8.40;;
8574;SDS011;4325;42.520;27.448;2023-03-01T05:08:20;11.67;;;9.33;;
8574;SDS011;4325;42.520;27.448;2023-03-01T05:10:48;13.97;;;8.90;;
8574;SDS011;4325;42.520;27.448;2023-03-01T05:13:18;10.27;;;8.37;;
8574;SDS011;4325;42.520;27.448;2023-03-01T05:15:47;14.33;;;9.77;;
8574;SDS011;4325;42.520;27.448;2023-03-01T05:18:15;15.17;;;8.97;;
8574;SDS011;4325;42.520;27.448;2023-03-01T05:20:42;14.17;;;9.80;;
8574;SDS011;4325;42.520;27.448;2023-03-01T05:23:09;13.93;;;10.10;;
8574;SDS011;4325;42.520;27.448;2023-03-01T05:25:36;15.77;;;10.40;;
8574;SDS011;4325;42.520;27.448;2023-03-01T05:28:06;11.87;;;8.63;;
8574;SDS011;4325;42.520;27.448;2023-03-01T05:30:36;14.93;;;8.60;;
8574;SDS011;4325;42.520;27.448;2023-03-01T05:33:04;11.77;;;8.90;;
8574;SDS011;4325;42.520;27.448;2023-03-01T05:35:38;11.70;;;8.77;;
8574;SDS011;4325;42.520;27.448;2023-03-01T05:38:05;11.37;;;8.83;;
8574;SDS011;4325;42.520;27.448;2023-03-01T05:40:32;12.07;;;9.37;;
8574;SDS011;4325;42.520;27.448;2023-03-01T05:43:00;11.63;;;8.50;;
8574;SDS011;4325;42.520;27.448;2023-03-01T05:45:30;10.80;;;8.23;;
8574;SDS011;4325;42.520;27.448;2023-03-01T05:47:59;12.70;;;8.13;;
8574;SDS011;4325;42.520;27.448;2023-03-01T05:50:27;11.10;;;8.47;;
8574;SDS011;4325;42.520;27.448;2023-03-01T05:52:59;12.57;;;7.90;;
8574;SDS011;4325;42.520;27.448;2023-03-01T05:55:28;9.77;;;7.70;;
8574;SDS011;4325;42.520;27.448;2023-03-01T05:57:57;11.73;;;8.30;;
8574;SDS011;4325;42.520;27.448;2023-03-01T06:00:25;13.67;;;8.93;;
8574;SDS011;4325;42.520;27.448;2023-03-01T06:02:53;13.23;;;8.07;;
8574;SDS011;4325;42.520;27.448;2023-03-01T06:05:21;16.70;;;8.90;;
8574;SDS011;4325;42.520;27.448;2023-03-01T06:07:49;11.57;;;7.47;;
8574;SDS011;4325;42.520;27.448;2023-03-01T06:10:16;13.60;;;8.10;;
8574;SDS011;4325;42.520;27.448;2023-03-01T06:12:44;9.70;;;6.97;;
8574;SDS011;4325;42.520;27.448;2023-03-01T06:15:11;9.90;;;7.73;;
8574;SDS011;4325;42.520;27.448;2023-03-01T06:17:40;11.30;;;7.53;;
8574;SDS011;4325;42.520;27.448;2023-03-01T06:20:09;8.60;;;7.70;;
8574;SDS011;4325;42.520;27.448;2023-03-01T06:22:39;10.07;;;7.90;;
8574;SDS011;4325;42.520;27.448;2023-03-01T06:25:07;12.57;;;7.47;;
8574;SDS011;4325;42.520;27.448;2023-03-01T06:27:35;13.90;;;6.87;;
8574;SDS011;4325;42.520;27.448;2023-03-01T06:30:02;11.00;;;7.03;;
8574;SDS011;4325;42.520;27.448;2023-03-01T06:32:30;9.33;;;6.97;;
8574;SDS011;4325;42.520;27.448;2023-03-01T06:34:57;8.17;;;7.13;;
8574;SDS011;4325;42.520;27.448;2023-03-01T06:37:24;9.73;;;6.77;;
8574;SDS011;4325;42.520;27.448;2023-03-01T06:39:52;10.20;;;6.70;;
8574;SDS011;4325;42.520;27.448;2023-03-01T06:42:19;8.57;;;6.23;;
8574;SDS011;4325;42.520;27.448;2023-03-01T06:44:46;9.37;;;6.43;;
8574;SDS011;4325;42.520;27.448;2023-03-01T06:47:13;8.10;;;6.30;;
8574;SDS011;4325;42.520;27.448;2023-03-01T06:49:40;10.60;;;6.47;;
8574;SDS011;4325;42.520;27.448;2023-03-01T06:52:07;10.20;;;7.20;;
8574;SDS011;4325;42.520;27.448;2023-03-01T06:54:34;13.30;;;7.77;;
8574;SDS011;4325;42.520;27.448;2023-03-01T06:57:02;9.53;;;7.37;;
8574;SDS011;4325;42.520;27.448;2023-03-01T06:59:29;10.87;;;6.93;;
8574;SDS011;4325;42.520;27.448;2023-03-01T07:01:56;9.10;;;6.60;;
8574;SDS011;4325;42.520;27.448;2023-03-01T07:04:23;8.90;;;6.83;;
8574;SDS011;4325;42.520;27.448;2023-03-01T07:06:50;9.63;;;7.37;;
8574;SDS011;4325;42.520;27.448;2023-03-01T07:09:20;7.87;;;6.23;;
8574;SDS011;4325;42.520;27.448;2023-03-01T07:11:47;10.60;;;6.47;;
8574;SDS011;4325;42.520;27.448;2023-03-01T07:14:16;10.77;;;6.40;;
8574;SDS011;4325;42.520;27.448;2023-03-01T07:16:44;11.17;;;6.97;;
8574;SDS011;4325;42.520;27.448;2023-03-01T07:19:11;9.93;;;6.37;;
8574;SDS011;4325;42.520;27.448;2023-03-01T07:21:38;11.00;;;7.10;;
8574;SDS011;4325;42.520;27.448;2023-03-01T07:24:05;8.77;;;6.47;;
8574;SDS011;4325;42.520;27.448;2023-03-01T07:26:33;8.40;;;6.47;;
8574;SDS011;4325;42.520;27.448;2023-03-01T07:29:00;9.03;;;6.87;;
8574;SDS011;4325;42.520;27.448;2023-03-01T07:31:28;10.43;;;6.10;;
8574;SDS011;4325;42.520;27.448;2023-03-01T07:33:55;10.40;;;5.93;;
8574;SDS011;4325;42.520;27.448;2023-03-01T07:36:22;9.63;;;6.30;;
8574;SDS011;4325;42.520;27.448;2023-03-01T07:38:50;12.03;;;6.80;;
8574;SDS011;4325;42.520;27.448;2023-03-01T07:41:17;9.13;;;6.60;;
8574;SDS011;4325;42.520;27.448;2023-03-01T07:43:44;10.50;;;6.60;;
8574;SDS011;4325;42.520;27.448;2023-03-01T07:46:11;13.83;;;6.43;;
8574;SDS011;4325;42.520;27.448;2023-03-01T07:48:39;8.83;;;6.73;;
8574;SDS011;4325;42.520;27.448;2023-03-01T07:51:06;7.73;;;6.17;;
8574;SDS011;4325;42.520;27.448;2023-03-01T07:53:33;15.20;;;6.40;;
8574;SDS011;4325;42.520;27.448;2023-03-01T07:56:01;8.23;;;5.97;;
8574;SDS011;4325;42.520;27.448;2023-03-01T07:58:29;8.90;;;6.67;;
8574;SDS011;4325;42.520;27.448;2023-03-01T08:00:56;9.37;;;6.70;;
8574;SDS011;4325;42.520;27.448;2023-03-01T08:03:26;9.23;;;6.87;;
8574;SDS011;4325;42.520;27.448;2023-03-01T08:05:55;9.47;;;6.67;;
8574;SDS011;4325;42.520;27.448;2023-03-01T08:08:22;8.67;;;5.83;;
8574;SDS011;4325;42.520;27.448;2023-03-01T08:10:48;11.20;;;6.30;;
8574;SDS011;4325;42.520;27.448;2023-03-01T08:13:15;10.07;;;6.47;;
8574;SDS011;4325;42.520;27.448;2023-03-01T08:15:47;11.53;;;7.40;;
8574;SDS011;4325;42.520;27.448;2023-03-01T08:18:14;10.27;;;6.90;;
8574;SDS011;4325;42.520;27.448;2023-03-01T08:20:41;9.23;;;6.70;;
8574;SDS011;4325;42.520;27.448;2023-03-01T08:23:09;7.90;;;5.83;;
8574;SDS011;4325;42.520;27.448;2023-03-01T08:25:36;11.40;;;6.70;;
8574;SDS011;4325;42.520;27.448;2023-03-01T08:28:03;8.70;;;6.50;;
8574;SDS011;4325;42.520;27.448;2023-03-01T08:30:31;9.50;;;6.53;;
8574;SDS011;4325;42.520;27.448;2023-03-01T08:32:58;8.10;;;5.87;;
8574;SDS011;4325;42.520;27.448;2023-03-01T08:35:25;8.73;;;5.83;;
8574;SDS011;4325;42.520;27.448;2023-03-01T08:37:51;17.73;;;6.93;;
8574;SDS011;4325;42.520;27.448;2023-03-01T08:40:20;9.30;;;6.87;;
8574;SDS011;4325;42.520;27.448;2023-03-01T08:42:47;10.10;;;6.63;;
8574;SDS011;4325;42.520;27.448;2023-03-01T08:45:13;8.67;;;6.47;;
8574;SDS011;4325;42.520;27.448;2023-03-01T08:47:43;10.50;;;6.97;;
8574;SDS011;4325;42.520;27.448;2023-03-01T08:50:10;8.53;;;6.40;;
8574;SDS011;4325;42.520;27.448;2023-03-01T08:52:37;12.47;;;6.53;;
8574;SDS011;4325;42.520;27.448;2023-03-01T08:55:04;14.23;;;6.47;;
8574;SDS011;4325;42.520;27.448;2023-03-01T08:57:33;11.37;;;6.63;;
8574;SDS011;4325;42.520;27.448;2023-03-01T09:00:00;9.10;;;6.07;;
8574;SDS011;4325;42.520;27.448;2023-03-01T09:02:28;11.97;;;7.00;;
8574;SDS011;4325;42.520;27.448;2023-03-01T09:04:55;9.67;;;6.47;;
8574;SDS011;4325;42.520;27.448;2023-03-01T09:07:22;7.83;;;5.93;;
8574;SDS011;4325;42.520;27.448;2023-03-01T09:09:53;9.37;;;6.27;;
8574;SDS011;4325;42.520;27.448;2023-03-01T09:12:20;13.73;;;6.63;;
8574;SDS011;4325;42.520;27.448;2023-03-01T09:14:48;11.03;;;6.90;;
8574;SDS011;4325;42.520;27.448;2023-03-01T09:17:15;9.37;;;7.00;;
8574;SDS011;4325;42.520;27.448;2023-03-01T09:19:42;13.60;;;7.27;;
8574;SDS011;4325;42.520;27.448;2023-03-01T09:22:09;12.70;;;7.23;;
8574;SDS011;4325;42.520;27.448;2023-03-01T09:24:36;11.67;;;7.00;;
8574;SDS011;4325;42.520;27.448;2023-03-01T09:27:02;12.10;;;8.20;;
8574;SDS011;4325;42.520;27.448;2023-03-01T09:29:33;10.87;;;7.37;;
8574;SDS011;4325;42.520;27.448;2023-03-01T09:32:02;15.90;;;7.67;;
8574;SDS011;4325;42.520;27.448;2023-03-01T09:34:29;14.13;;;8.30;;
8574;SDS011;4325;42.520;27.448;2023-03-01T09:37:17;17.43;;;8.67;;
8574;SDS011;4325;42.520;27.448;2023-03-01T09:39:43;11.53;;;8.23;;
8574;SDS011;4325;42.520;27.448;2023-03-01T09:42:10;13.03;;;7.67;;
8574;SDS011;4325;42.520;27.448;2023-03-01T09:44:40;9.50;;;7.57;;
8574;SDS011;4325;42.520;27.448;2023-03-01T09:47:16;8.53;;;7.60;;
8574;SDS011;4325;42.520;27.448;2023-03-01T09:49:45;11.23;;;8.03;;
8574;SDS011;4325;42.520;27.448;2023-03-01T09:52:25;12.70;;;8.50;;
8574;SDS011;4325;42.520;27.448;2023-03-01T09:54:55;10.33;;;7.87;;
8574;SDS011;4325;42.520;27.448;2023-03-01T09:57:26;12.77;;;8.70;;
8574;SDS011;4325;42.520;27.448;2023-03-01T10:00:19;22.43;;;8.60;;
8574;SDS011;4325;42.520;27.448;2023-03-01T10:02:59;12.30;;;8.33;;
8574;SDS011;4325;42.520;27.448;2023-03-01T10:05:36;14.80;;;9.13;;
8574;SDS011;4325;42.520;27.448;2023-03-01T10:08:19;11.80;;;8.10;;
8574;SDS011;4325;42.520;27.448;2023-03-01T10:10:56;15.53;;;9.33;;
8574;SDS011;4325;42.520;27.448;2023-03-01T10:13:25;12.57;;;8.60;;
8574;SDS011;4325;42.520;27.448;2023-03-01T10:15:59;12.80;;;9.23;;
8574;SDS011;4325;42.520;27.448;2023-03-01T10:18:31;17.97;;;8.90;;
8574;SDS011;4325;42.520;27.448;2023-03-01T10:21:05;16.53;;;9.50;;
8574;SDS011;4325;42.520;27.448;2023-03-01T10:23:40;15.30;;;8.53;;
8574;SDS011;4325;42.520;27.448;2023-03-01T10:26:09;11.57;;;8.93;;
8574;SDS011;4325;42.520;27.448;2023-03-01T10:28:51;16.90;;;7.90;;
8574;SDS011;4325;42.520;27.448;2023-03-01T10:31:26;15.10;;;9.00;;
8574;SDS011;4325;42.520;27.448;2023-03-01T10:34:04;14.43;;;8.40;;
8574;SDS011;4325;42.520;27.448;2023-03-01T10:36:34;15.77;;;8.50;;
8574;SDS011;4325;42.520;27.448;2023-03-01T10:39:10;16.33;;;8.53;;
8574;SDS011;4325;42.520;27.448;2023-03-01T10:41:45;16.10;;;9.03;;
8574;SDS011;4325;42.520;27.448;2023-03-01T10:47:04;10.33;;;8.23;;
8574;SDS011;4325;42.520;27.448;2023-03-01T10:49:36;12.43;;;7.93;;
8574;SDS011;4325;42.520;27.448;2023-03-01T10:52:11;10.50;;;7.73;;
8574;SDS011;4325;42.520;27.448;2023-03-01T10:54:45;16.23;;;8.37;;
8574;SDS011;4325;42.520;27.448;2023-03-01T11:00:18;11.33;;;8.40;;
8574;SDS011;4325;42.520;27.448;2023-03-01T11:02:48;17.53;;;9.33;;
8574;SDS011;4325;42.520;27.448;2023-03-01T11:05:20;13.20;;;8.33;;
8574;SDS011;4325;42.520;27.448;2023-03-01T11:07:49;15.20;;;8.67;;
8574;SDS011;4325;42.520;27.448;2023-03-01T11:10:18;17.07;;;9.00;;
8574;SDS011;4325;42.520;27.448;2023-03-01T11:12:47;15.47;;;8.63;;
8574;SDS011;4325;42.520;27.448;2023-03-01T11:15:21;12.97;;;9.23;;
8574;SDS011;4325;42.520;27.448;2023-03-01T11:17:50;11.60;;;8.93;;
8574;SDS011;4325;42.520;27.448;2023-03-01T11:20:20;16.33;;;10.40;;
8574;SDS011;4325;42.520;27.448;2023-03-01T11:22:52;18.10;;;10.23;;
8574;SDS011;4325;42.520;27.448;2023-03-01T11:25:23;18.07;;;9.47;;
8574;SDS011;4325;42.520;27.448;2023-03-01T11:27:52;15.10;;;9.90;;
8574;SDS011;4325;42.520;27.448;2023-03-01T11:30:21;25.50;;;10.90;;
8574;SDS011;4325;42.520;27.448;2023-03-01T11:32:56;15.93;;;10.43;;
8574;SDS011;4325;42.520;27.448;2023-03-01T11:35:32;14.77;;;11.33;;
8574;SDS011;4325;42.520;27.448;2023-03-01T11:38:06;19.60;;;10.63;;
8574;SDS011;4325;42.520;27.448;2023-03-01T11:40:43;20.47;;;11.47;;
8574;SDS011;4325;42.520;27.448;2023-03-01T11:43:15;14.73;;;10.67;;
8574;SDS011;4325;42.520;27.448;2023-03-01T11:46:03;14.33;;;11.37;;
8574;SDS011;4325;42.520;27.448;2023-03-01T11:48:54;14.17;;;11.53;;
8574;SDS011;4325;42.520;27.448;2023-03-01T11:51:36;17.63;;;10.90;;
8574;SDS011;4325;42.520;27.448;2023-03-01T11:54:21;18.80;;;12.10;;
8574;SDS011;4325;42.520;27.448;2023-03-01T11:56:57;19.17;;;11.50;;
8574;SDS011;4325;42.520;27.448;2023-03-01T11:59:37;18.20;;;11.93;;
8574;SDS011;4325;42.520;27.448;2023-03-01T12:02:35;17.40;;;12.30;;
8574;SDS011;4325;42.520;27.448;2023-03-01T12:05:35;16.87;;;11.87;;
8574;SDS011;4325;42.520;27.448;2023-03-01T12:08:22;13.90;;;11.20;;
8574;SDS011;4325;42.520;27.448;2023-03-01T12:10:57;15.77;;;11.50;;
8574;SDS011;4325;42.520;27.448;2023-03-01T12:13:38;14.47;;;10.80;;
8574;SDS011;4325;42.520;27.448;2023-03-01T12:16:28;18.63;;;10.50;;
8574;SDS011;4325;42.520;27.448;2023-03-01T12:19:08;15.17;;;10.80;;
8574;SDS011;4325;42.520;27.448;2023-03-01T12:21:53;13.47;;;10.07;;
8574;SDS011;4325;42.520;27.448;2023-03-01T12:30:39;13.90;;;10.20;;
8574;SDS011;4325;42.520;27.448;2023-03-01T12:33:19;9.80;;;8.47;;
8574;SDS011;4325;42.520;27.448;2023-03-01T12:36:06;11.10;;;8.03;;
8574;SDS011;4325;42.520;27.448;2023-03-01T12:38:42;10.73;;;8.00;;
8574;SDS011;4325;42.520;27.448;2023-03-01T12:41:31;13.57;;;7.30;;
8574;SDS011;4325;42.520;27.448;2023-03-01T12:44:11;10.43;;;6.77;;
8574;SDS011;4325;42.520;27.448;2023-03-01T12:46:52;13.60;;;6.63;;
8574;SDS011;4325;42.520;27.448;2023-03-01T12:49:34;9.60;;;6.50;;
8574;SDS011;4325;42.520;27.448;2023-03-01T12:52:09;8.53;;;6.70;;
8574;SDS011;4325;42.520;27.448;2023-03-01T12:54:41;8.30;;;6.57;;
8574;SDS011;4325;42.520;27.448;2023-03-01T12:57:11;11.40;;;6.50;;
8574;SDS011;4325;42.520;27.448;2023-03-01T12:59:48;10.60;;;6.53;;
8574;SDS011;4325;42.520;27.448;2023-03-01T13:02:26;11.43;;;5.97;;
8574;SDS011;4325;42.520;27.448;2023-03-01T13:05:05;12.17;;;6.73;;
8574;SDS011;4325;42.520;27.448;2023-03-01T13:07:49;10.60;;;6.70;;
8574;SDS011;4325;42.520;27.448;2023-03-01T13:10:23;13.80;;;6.67;;
8574;SDS011;4325;42.520;27.448;2023-03-01T13:13:08;9.67;;;7.33;;
8574;SDS011;4325;42.520;27.448;2023-03-01T13:15:39;12.63;;;7.93;;
8574;SDS011;4325;42.520;27.448;2023-03-01T13:20:55;12.23;;;7.77;;
8574;SDS011;4325;42.520;27.448;2023-03-01T13:23:25;18.30;;;8.63;;
8574;SDS011;4325;42.520;27.448;2023-03-01T13:26:00;13.33;;;7.87;;
8574;SDS011;4325;42.520;27.448;2023-03-01T13:28:41;12.17;;;8.40;;
8574;SDS011;4325;42.520;27.448;2023-03-01T13:37:26;18.80;;;8.17;;
8574;SDS011;4325;42.520;27.448;2023-03-01T13:39:56;15.37;;;9.03;;
8574;SDS011;4325;42.520;27.448;2023-03-01T13:42:33;19.10;;;9.33;;
8574;SDS011;4325;42.520;27.448;2023-03-01T13:45:05;18.47;;;8.80;;
8574;SDS011;4325;42.520;27.448;2023-03-01T13:47:42;16.47;;;8.80;;
8574;SDS011;4325;42.520;27.448;2023-03-01T13:50:16;18.60;;;9.40;;
8574;SDS011;4325;42.520;27.448;2023-03-01T13:52:47;14.97;;;9.13;;
8574;SDS011;4325;42.520;27.448;2023-03-01T13:55:18;14.73;;;8.63;;
8574;SDS011;4325;42.520;27.448;2023-03-01T13:57:50;12.67;;;8.90;;
8574;SDS011;4325;42.520;27.448;2023-03-01T14:00:31;15.50;;;7.60;;
8574;SDS011;4325;42.520;27.448;2023-03-01T14:03:01;14.23;;;7.83;;
8574;SDS011;4325;42.520;27.448;2023-03-01T14:05:30;17.47;;;8.20;;
8574;SDS011;4325;42.520;27.448;2023-03-01T14:07:57;16.80;;;8.10;;
8574;SDS011;4325;42.520;27.448;2023-03-01T14:10:25;16.83;;;7.90;;
8574;SDS011;4325;42.520;27.448;2023-03-01T14:13:10;13.17;;;7.37;;
8574;SDS011;4325;42.520;27.448;2023-03-01T14:15:54;11.53;;;6.70;;
8574;SDS011;4325;42.520;27.448;2023-03-01T14:18:36;10.10;;;6.30;;
8574;SDS011;4325;42.520;27.448;2023-03-01T14:21:07;15.40;;;7.70;;
8574;SDS011;4325;42.520;27.448;2023-03-01T14:23:35;12.00;;;6.80;;
8574;SDS011;4325;42.520;27.448;2023-03-01T14:26:07;19.53;;;7.43;;
8574;SDS011;4325;42.520;27.448;2023-03-01T14:28:37;11.10;;;7.13;;
8574;SDS011;4325;42.520;27.448;2023-03-01T14:33:59;8.97;;;7.03;;
8574;SDS011;4325;42.520;27.448;2023-03-01T14:36:27;16.43;;;7.50;;
8574;SDS011;4325;42.520;27.448;2023-03-01T14:38:55;9.97;;;6.63;;
8574;SDS011;4325;42.520;27.448;2023-03-01T14:41:25;15.70;;;7.00;;
8574;SDS011;4325;42.520;27.448;2023-03-01T14:43:55;13.93;;;6.73;;
8574;SDS011;4325;42.520;27.448;2023-03-01T14:46:26;13.13;;;6.83;;
8574;SDS011;4325;42.520;27.448;2023-03-01T14:49:02;14.07;;;6.50;;
8574;SDS011;4325;42.520;27.448;2023-03-01T14:51:34;8.63;;;6.03;;
8574;SDS011;4325;42.520;27.448;2023-03-01T14:54:04;13.63;;;6.00;;
8574;SDS011;4325;42.520;27.448;2023-03-01T14:56:45;10.57;;;6.27;;
8574;SDS011;4325;42.520;27.448;2023-03-01T14:59:12;10.33;;;7.43;;
8574;SDS011;4325;42.520;27.448;2023-03-01T15:01:39;14.87;;;6.53;;
8574;SDS011;4325;42.520;27.448;2023-03-01T15:04:10;13.27;;;6.83;;
8574;SDS011;4325;42.520;27.448;2023-03-01T15:06:38;8.40;;;5.90;;
8574;SDS011;4325;42.520;27.448;2023-03-01T15:09:05;13.83;;;6.30;;
8574;SDS011;4325;42.520;27.448;2023-03-01T15:11:37;11.17;;;5.70;;
8574;SDS011;4325;42.520;27.448;2023-03-01T15:17:23;7.67;;;5.87;;
8574;SDS011;4325;42.520;27.448;2023-03-01T15:19:58;10.80;;;7.03;;
8574;SDS011;4325;42.520;27.448;2023-03-01T15:22:26;10.33;;;6.20;;
8574;SDS011;4325;42.520;27.448;2023-03-01T15:24:53;14.40;;;6.83;;
8574;SDS011;4325;42.520;27.448;2023-03-01T15:27:21;9.20;;;5.77;;
8574;SDS011;4325;42.520;27.448;2023-03-01T15:29:50;8.87;;;5.90;;
8574;SDS011;4325;42.520;27.448;2023-03-01T15:32:24;13.50;;;6.43;;
8574;SDS011;4325;42.520;27.448;2023-03-01T15:34:55;8.93;;;6.00;;
8574;SDS011;4325;42.520;27.448;2023-03-01T15:37:40;14.40;;;5.43;;
8574;SDS011;4325;42.520;27.448;2023-03-01T15:40:19;8.90;;;5.30;;
8574;SDS011;4325;42.520;27.448;2023-03-01T15:42:52;13.10;;;5.77;;